< < Back
Terminal Aerodrome Forecast


Current Version              Previous Versions:   1  2  3  4  5  6  7  8  9  

Terminal Aerodrome Forecast

987
FTUS44 KBMX 311120
TAFANB
TAF
KANB 311120Z 3112/0112 31005KT P6SM SCT050
     FM010200 00000KT P6SM SCT250=

Latest METAR

563
SAUS70 KWBC 311600 RRC
MTRANB
METAR KANB 311553Z AUTO 00000KT 10SM CLR 31/17 A2997 RMK AO2 SLP139
T03060167


USA.gov is the U.S. government's official web portal to all federal, state and local government web resources and services.